Northwestern — WDE5199 — position and weather

sailwx.info

Track history (hours):
 
Tides and Currents Weather Stations Pressure Air Temp Water Temp Dewpoint Dewpoint Depression Visibility Wind Speed Wind Dir Waves Ship Positions

Northwestern

Owner: Northwestern LLC, Seattle, WA. More information available from US FCC via Universal Licensing System and Coast Guard Vessel Documentation Center.

Last reported at 2015-Jun-13 21:12 UTC. Time now 2015-Jul-05 04:23 UTC.
Position N 49°33' W 127°06'.
Warning: this ship's position is 21 days out of date.

Length 38 m; draft 4.3 m.

Type: Fishing. MMSI: 367363350.

Date/timePositionNaut miles runAvg speedWind from/ knotsBaromVisibWave heightAir tempDewpointWater temp
2015-Jun-13 21:12N 49°33' W 127°06'15 9.3
2015-Jun-13 19:33N 49°24' W 126°47'10 9.5
2015-Jun-13 18:33N 49°18' W 126°36'10 9.5
2015-Jun-13 17:33N 49°12' W 126°24'12 9.8
2015-Jun-13 16:18N 49°04' W 126°09'710.1
2015-Jun-13 15:33N 48°60' W 125°60'1010.4
2015-Jun-13 14:33N 48°55' W 125°46'1010.2
2015-Jun-13 13:33N 48°51' W 125°32'1010.4
2015-Jun-13 12:33N 48°45' W 125°18'5810.7
2015-Jun-13 07:09N 48°19' W 124°01'6 9.6
2015-Jun-13 06:30N 48°18' W 123°52'9 9.6
2015-Jun-13 05:33N 48°16' W 123°38'1010.0
2015-Jun-13 04:33N 48°15' W 123°23'1010.4
2015-Jun-13 03:33N 48°13' W 123°08'2410.2
2015-Jun-13 01:13N 48°02' W 122°37'412.2
2015-Jun-13 00:53N 47°58' W 122°34'411.7
2015-Jun-13 00:34N 47°56' W 122°29'110.7
2015-Jun-13 00:28N 47°55' W 122°28'1010.6
2015-Jun-12 23:34N 47°46' W 122°25'0 6.0
2015-Jun-12 23:33N 47°46' W 122°25'5 5.0
2015-Jun-12 22:33N 47°41' W 122°25'0 0.0
2015-Jun-12 22:33N 47°41' W 122°25'1 0.9
2015-Jun-12 21:33N 47°40' W 122°24'0 0.0
2015-Jun-12 21:33N 47°40' W 122°24'0 0.3
2015-Jun-12 20:32N 47°40' W 122°23'0 0.0
2015-Jun-12 20:32N 47°40' W 122°23'0 0.0
2015-Jun-12 19:33N 47°40' W 122°23'0 0.0
2015-Jun-12 19:33N 47°40' W 122°23'0 0.0
2015-Jun-12 18:33N 47°40' W 122°23'0 0.0
2015-Jun-12 18:32N 47°40' W 122°23'0 0.0
2015-Jun-12 17:33N 47°40' W 122°23'0 0.0
2015-Jun-12 17:32N 47°40' W 122°23'0 0.0
2015-Jun-12 16:33N 47°40' W 122°23'0 0.0
2015-Jun-12 16:32N 47°40' W 122°23'0 0.0
2015-Jun-12 15:33N 47°40' W 122°23'0 0.0
2015-Jun-12 15:32N 47°40' W 122°23'0 0.0
2015-Jun-12 14:33N 47°40' W 122°23'0 0.0
2015-Jun-12 14:31N 47°40' W 122°23'0 0.0
2015-Jun-12 13:33N 47°40' W 122°23'0 0.2
2015-Jun-12 13:31N 47°40' W 122°23'0 0.0
2015-Jun-12 12:34N 47°40' W 122°23'0 0.1
2015-Jun-12 12:31N 47°40' W 122°23'0 0.0
2015-Jun-12 11:33N 47°40' W 122°23'0 0.1
2015-Jun-12 11:30N 47°40' W 122°23'0 0.0
2015-Jun-12 10:33N 47°40' W 122°23'0 0.0
2015-Jun-12 10:30N 47°40' W 122°23'0 0.0
2015-Jun-12 09:33N 47°40' W 122°23'0 0.1
2015-Jun-12 09:30N 47°40' W 122°23'0 0.0
2015-Jun-12 08:33N 47°40' W 122°23'0 0.0
2015-Jun-12 08:30N 47°40' W 122°23'0 0.0
2015-Jun-12 07:33N 47°40' W 122°23'0 0.0
2015-Jun-12 07:30N 47°40' W 122°23'0 0.0
2015-Jun-12 06:33N 47°40' W 122°23'0 0.0
2015-Jun-12 06:30N 47°40' W 122°23'0 0.0
2015-Jun-12 06:14N 47°40' W 122°23'0 0.0
2015-Jun-12 05:33N 47°40' W 122°23'0 0.0
2015-Jun-12 04:34N 47°40' W 122°23'0 0.0
2015-Jun-12 04:29N 47°40' W 122°23'0 0.0
2015-Jun-12 03:33N 47°40' W 122°23'0 0.0
2015-Jun-12 03:29N 47°40' W 122°23'0 0.0
2015-Jun-12 02:34N 47°40' W 122°23'0 0.0
2015-Jun-12 02:33N 47°40' W 122°23'0 0.0
2015-Jun-12 01:34N 47°40' W 122°23'0 0.0
2015-Jun-12 01:33N 47°40' W 122°23'0 0.0
2015-Jun-12 00:33N 47°40' W 122°23'0 0.0
2015-Jun-12 00:33N 47°40' W 122°23'0 0.0
2015-Jun-11 23:33N 47°40' W 122°23'0 0.0
2015-Jun-11 23:33N 47°40' W 122°23'0 0.0
2015-Jun-11 22:33N 47°40' W 122°23'0 0.0
2015-Jun-11 22:33N 47°40' W 122°23'0 0.0
2015-Jun-11 21:33N 47°40' W 122°23'0 0.0
2015-Jun-11 21:32N 47°40' W 122°23'0 0.0
2015-Jun-11 20:33N 47°40' W 122°23'0 0.0
2015-Jun-11 20:33N 47°40' W 122°23'0 0.0
2015-Jun-11 19:33N 47°40' W 122°23'0 0.0
2015-Jun-11 19:32N 47°40' W 122°23'0 0.0
2015-Jun-11 18:33N 47°40' W 122°23'0 0.3
2015-Jun-11 18:32N 47°40' W 122°23'0 0.0
2015-Jun-11 17:33N 47°40' W 122°23'0 0.0
2015-Jun-11 17:32N 47°40' W 122°23'0 0.0
2015-Jun-11 16:33N 47°40' W 122°23'0 0.3
2015-Jun-11 16:32N 47°40' W 122°23'0 0.0
2015-Jun-11 15:18N 47°40' W 122°23'0 0.0
2015-Jun-11 15:16N 47°40' W 122°23'0 0.0
2015-Jun-11 14:33N 47°40' W 122°23'0 0.2
2015-Jun-11 14:31N 47°40' W 122°23'0 0.0
2015-Jun-11 13:34N 47°40' W 122°23'0 0.0
2015-Jun-11 13:31N 47°40' W 122°23'0 0.0
2015-Jun-11 12:34N 47°40' W 122°23'0 0.0
2015-Jun-11 12:31N 47°40' W 122°23'0 0.0
2015-Jun-11 11:33N 47°40' W 122°23'0 0.0
2015-Jun-11 11:31N 47°40' W 122°23'0 0.0
2015-Jun-11 10:33N 47°40' W 122°23'0 0.0
2015-Jun-11 10:30N 47°40' W 122°23'0 0.0
2015-Jun-11 09:33N 47°40' W 122°23'0 0.0
2015-Jun-11 09:30N 47°40' W 122°23'0 0.0
2015-Jun-11 08:33N 47°40' W 122°23'0 0.0
2015-Jun-11 08:30N 47°40' W 122°23'0 0.0
2015-Jun-11 07:33N 47°40' W 122°23'0 0.2
2015-Jun-11 07:30N 47°40' W 122°23'0 0.0
2015-Jun-11 06:33N 47°40' W 122°23'0 0.0
2015-Jun-11 06:29N 47°40' W 122°23'0 0.0
2015-Jun-11 06:14N 47°40' W 122°23'0 0.0
2015-Jun-11 05:34N 47°40' W 122°23'0 0.0
2015-Jun-11 04:34N 47°40' W 122°23'0 0.0
2015-Jun-11 04:29N 47°40' W 122°23'0 0.0
2015-Jun-11 03:33N 47°40' W 122°23'0 0.1
2015-Jun-11 03:29N 47°40' W 122°23'0 0.0
2015-Jun-11 02:33N 47°40' W 122°23'0 0.0
2015-Jun-11 02:29N 47°40' W 122°23'0 0.0
2015-Jun-11 01:34N 47°40' W 122°23'0 0.7
2015-Jun-11 01:33N 47°40' W 122°23'0 0.0
2015-Jun-11 00:33N 47°40' W 122°23'0 0.0
2015-Jun-11 00:33N 47°40' W 122°23'0 0.0
2015-Jun-10 23:33N 47°40' W 122°23'0 0.0
2015-Jun-10 23:33N 47°40' W 122°23'0 0.0
2015-Jun-10 22:33N 47°40' W 122°23'0 0.0
2015-Jun-10 22:33N 47°40' W 122°23'0 0.0
2015-Jun-10 21:34N 47°40' W 122°23'0 0.0
2015-Jun-10 21:32N 47°40' W 122°23'0 0.0
2015-Jun-10 20:34N 47°40' W 122°23'0 0.0
2015-Jun-10 20:33N 47°40' W 122°23'0 0.0
2015-Jun-10 19:33N 47°40' W 122°23'0 0.0
2015-Jun-10 19:32N 47°40' W 122°23'0 0.0
2015-Jun-10 18:33N 47°40' W 122°23'0 0.0
2015-Jun-10 18:32N 47°40' W 122°23'0 0.0
2015-Jun-10 17:33N 47°40' W 122°23'0 0.0
2015-Jun-10 17:32N 47°40' W 122°23'0 0.0
2015-Jun-10 16:33N 47°40' W 122°23'0 0.0
2015-Jun-10 16:32N 47°40' W 122°23'0 0.0
2015-Jun-10 15:32N 47°40' W 122°23'0 0.4
2015-Jun-10 15:31N 47°40' W 122°23'0 0.0
2015-Jun-10 14:33N 47°40' W 122°23'0 0.0
2015-Jun-10 14:31N 47°40' W 122°23'0 0.0
2015-Jun-10 13:34N 47°40' W 122°23'0 0.0
2015-Jun-10 13:31N 47°40' W 122°23'0 0.0
2015-Jun-10 12:34N 47°40' W 122°23'0 0.0
2015-Jun-10 12:31N 47°40' W 122°23'0 0.0
2015-Jun-10 11:34N 47°40' W 122°23'0 0.0
2015-Jun-10 11:31N 47°40' W 122°23'0 0.0
2015-Jun-10 10:34N 47°40' W 122°23'0 0.0
2015-Jun-10 10:31N 47°40' W 122°23'0 0.0
2015-Jun-10 09:34N 47°40' W 122°23'0 0.0
2015-Jun-10 09:30N 47°40' W 122°23'0 0.0
2015-Jun-10 08:33N 47°40' W 122°23'0 0.1
2015-Jun-10 08:30N 47°40' W 122°23'0 0.0
2015-Jun-10 07:31N 47°40' W 122°23'0 0.0
2015-Jun-10 07:30N 47°40' W 122°23'0 0.0
2015-Jun-10 06:33N 47°40' W 122°23'0 0.0
2015-Jun-10 06:30N 47°40' W 122°23'0 0.0
2015-Jun-10 06:20N 47°40' W 122°23'0 0.0
2015-Jun-10 05:33N 47°40' W 122°23'0 0.0
2015-Jun-10 04:33N 47°40' W 122°23'0 0.0
2015-Jun-10 04:29N 47°40' W 122°23'0 0.0
2015-Jun-10 03:34N 47°40' W 122°23'0 0.1
2015-Jun-10 03:29N 47°40' W 122°23'0 0.0
2015-Jun-10 02:34N 47°40' W 122°23'0 0.0
2015-Jun-10 02:29N 47°40' W 122°23'0 0.0
2015-Jun-10 01:34N 47°40' W 122°23'0 0.0
2015-Jun-10 00:33N 47°40' W 122°23'0 0.0
2015-Jun-10 00:33N 47°40' W 122°23'0 0.0
2015-Jun-09 23:33N 47°40' W 122°23'0 0.0
2015-Jun-09 23:33N 47°40' W 122°23'0 0.0
2015-Jun-09 22:33N 47°40' W 122°23'0 0.0
2015-Jun-09 22:33N 47°40' W 122°23'0 0.0
2015-Jun-09 21:33N 47°40' W 122°23'0 0.0
2015-Jun-09 21:33N 47°40' W 122°23'0 0.0
2015-Jun-09 20:33N 47°40' W 122°23'0 0.0
2015-Jun-09 20:33N 47°40' W 122°23'0 0.0
2015-Jun-09 19:34N 47°40' W 122°23'0 0.0
2015-Jun-09 19:32N 47°40' W 122°23'0 0.0
2015-Jun-09 18:34N 47°40' W 122°23'0 0.3
2015-Jun-09 18:32N 47°40' W 122°23'0 0.0
2015-Jun-09 17:34N 47°40' W 122°23'0 0.0
2015-Jun-09 17:32N 47°40' W 122°23'0 0.0
2015-Jun-09 16:33N 47°40' W 122°23'0 0.2
2015-Jun-09 16:32N 47°40' W 122°23'0 0.0
2015-Jun-09 15:33N 47°40' W 122°23'0 0.5
2015-Jun-09 15:32N 47°40' W 122°23'0 0.0
2015-Jun-09 14:33N 47°40' W 122°23'0 0.0
2015-Jun-09 14:31N 47°40' W 122°23'0 0.0
2015-Jun-09 13:33N 47°40' W 122°23'0 0.1
2015-Jun-09 13:31N 47°40' W 122°23'0 0.0
2015-Jun-09 12:34N 47°40' W 122°23'0 0.0
2015-Jun-09 12:31N 47°40' W 122°23'0 0.0
2015-Jun-09 11:34N 47°40' W 122°23'0 0.0
2015-Jun-09 11:31N 47°40' W 122°23'0 0.0
2015-Jun-09 10:34N 47°40' W 122°23'0 0.0
2015-Jun-09 10:31N 47°40' W 122°23'0 0.0
2015-Jun-09 09:34N 47°40' W 122°23'0 0.1
2015-Jun-09 09:30N 47°40' W 122°23'0 0.0
2015-Jun-09 08:33N 47°40' W 122°23'0 0.1
2015-Jun-09 08:30N 47°40' W 122°23'0 0.0
2015-Jun-09 07:33N 47°40' W 122°23'0 0.0
2015-Jun-09 07:30N 47°40' W 122°23'0 0.0
2015-Jun-09 06:33N 47°40' W 122°23'0 0.1
2015-Jun-09 06:30N 47°40' W 122°23'0 0.0
2015-Jun-09 06:15N 47°40' W 122°23'0 0.0
2015-Jun-09 05:33N 47°40' W 122°23'0 0.0
2015-Jun-09 04:33N 47°40' W 122°23'0 0.0
2015-Jun-09 04:29N 47°40' W 122°23'0 0.0
2015-Jun-09 03:34N 47°40' W 122°23'0 0.0
2015-Jun-09 03:29N 47°40' W 122°23'0 0.0
2015-Jun-09 02:33N 47°40' W 122°23'0 0.0
2015-Jun-09 02:29N 47°40' W 122°23'0 0.0
2015-Jun-09 01:34N 47°40' W 122°23'0 0.0
2015-Jun-09 01:29N 47°40' W 122°23'0 0.0
2015-Jun-09 00:33N 47°40' W 122°23'0 0.9
2015-Jun-09 00:33N 47°40' W 122°23'0 0.0
2015-Jun-08 23:33N 47°40' W 122°23'0 0.0
2015-Jun-08 23:33N 47°40' W 122°23'0 0.0
2015-Jun-08 22:33N 47°40' W 122°23'0 0.0
2015-Jun-08 22:33N 47°40' W 122°23'0 0.0
2015-Jun-08 21:33N 47°40' W 122°23'0 0.0
2015-Jun-08 21:33N 47°40' W 122°23'0 0.0
2015-Jun-08 20:34N 47°40' W 122°23'0 0.0
2015-Jun-08 20:33N 47°40' W 122°23'0 0.0
2015-Jun-08 19:34N 47°40' W 122°23'0 0.0
2015-Jun-08 19:32N 47°40' W 122°23'0 0.0
2015-Jun-08 18:33N 47°40' W 122°23'0 0.0
2015-Jun-08 18:32N 47°40' W 122°23'0 0.0
2015-Jun-08 17:34N 47°40' W 122°23'0 0.0
2015-Jun-08 17:32N 47°40' W 122°23'0 0.0
2015-Jun-08 16:33N 47°40' W 122°23'0 0.0
2015-Jun-08 16:32N 47°40' W 122°23'0 0.0
2015-Jun-08 15:33N 47°40' W 122°23'0 0.0
2015-Jun-08 15:32N 47°40' W 122°23'0 0.0
2015-Jun-08 14:33N 47°40' W 122°23'0 0.2
2015-Jun-08 14:31N 47°40' W 122°23'  
Track history (hours):
 
Tides and Currents Weather Stations Pressure Air Temp Water Temp Dewpoint Dewpoint Depression Visibility Wind Speed Wind Dir Waves Ship Positions

Northwestern

Owner: Northwestern LLC, Seattle, WA. More information available from US FCC via Universal Licensing System and Coast Guard Vessel Documentation Center.

Last reported at 2015-Jun-13 21:12 UTC. Time now 2015-Jul-05 04:23 UTC.
Position N 49°33' W 127°06'.
Warning: this ship's position is 21 days out of date.

Length 38 m; draft 4.3 m.

Type: Fishing. MMSI: 367363350.

Date/timePositionNaut miles runAvg speedWind from/ knotsBaromVisibWave heightAir tempDewpointWater temp
2015-Jun-13 21:12N 49°33' W 127°06'15 9.3
2015-Jun-13 19:33N 49°24' W 126°47'10 9.5
2015-Jun-13 18:33N 49°18' W 126°36'10 9.5
2015-Jun-13 17:33N 49°12' W 126°24'12 9.8
2015-Jun-13 16:18N 49°04' W 126°09'710.1
2015-Jun-13 15:33N 48°60' W 125°60'1010.4
2015-Jun-13 14:33N 48°55' W 125°46'1010.2
2015-Jun-13 13:33N 48°51' W 125°32'1010.4
2015-Jun-13 12:33N 48°45' W 125°18'5810.7
2015-Jun-13 07:09N 48°19' W 124°01'6 9.6
2015-Jun-13 06:30N 48°18' W 123°52'9 9.6
2015-Jun-13 05:33N 48°16' W 123°38'1010.0
2015-Jun-13 04:33N 48°15' W 123°23'1010.4
2015-Jun-13 03:33N 48°13' W 123°08'2410.2
2015-Jun-13 01:13N 48°02' W 122°37'412.2
2015-Jun-13 00:53N 47°58' W 122°34'411.7
2015-Jun-13 00:34N 47°56' W 122°29'110.7
2015-Jun-13 00:28N 47°55' W 122°28'1010.6
2015-Jun-12 23:34N 47°46' W 122°25'0 6.0
2015-Jun-12 23:33N 47°46' W 122°25'5 5.0
2015-Jun-12 22:33N 47°41' W 122°25'0 0.0
2015-Jun-12 22:33N 47°41' W 122°25'1 0.9
2015-Jun-12 21:33N 47°40' W 122°24'0 0.0
2015-Jun-12 21:33N 47°40' W 122°24'0 0.3
2015-Jun-12 20:32N 47°40' W 122°23'0 0.0
2015-Jun-12 20:32N 47°40' W 122°23'0 0.0
2015-Jun-12 19:33N 47°40' W 122°23'0 0.0
2015-Jun-12 19:33N 47°40' W 122°23'0 0.0
2015-Jun-12 18:33N 47°40' W 122°23'0 0.0
2015-Jun-12 18:32N 47°40' W 122°23'0 0.0
2015-Jun-12 17:33N 47°40' W 122°23'0 0.0
2015-Jun-12 17:32N 47°40' W 122°23'0 0.0
2015-Jun-12 16:33N 47°40' W 122°23'0 0.0
2015-Jun-12 16:32N 47°40' W 122°23'0 0.0
2015-Jun-12 15:33N 47°40' W 122°23'0 0.0
2015-Jun-12 15:32N 47°40' W 122°23'0 0.0
2015-Jun-12 14:33N 47°40' W 122°23'0 0.0
2015-Jun-12 14:31N 47°40' W 122°23'0 0.0
2015-Jun-12 13:33N 47°40' W 122°23'0 0.2
2015-Jun-12 13:31N 47°40' W 122°23'0 0.0
2015-Jun-12 12:34N 47°40' W 122°23'0 0.1
2015-Jun-12 12:31N 47°40' W 122°23'0 0.0
2015-Jun-12 11:33N 47°40' W 122°23'0 0.1
2015-Jun-12 11:30N 47°40' W 122°23'0 0.0
2015-Jun-12 10:33N 47°40' W 122°23'0 0.0
2015-Jun-12 10:30N 47°40' W 122°23'0 0.0
2015-Jun-12 09:33N 47°40' W 122°23'0 0.1
2015-Jun-12 09:30N 47°40' W 122°23'0 0.0
2015-Jun-12 08:33N 47°40' W 122°23'0 0.0
2015-Jun-12 08:30N 47°40' W 122°23'0 0.0
2015-Jun-12 07:33N 47°40' W 122°23'0 0.0
2015-Jun-12 07:30N 47°40' W 122°23'0 0.0
2015-Jun-12 06:33N 47°40' W 122°23'0 0.0
2015-Jun-12 06:30N 47°40' W 122°23'0 0.0
2015-Jun-12 06:14N 47°40' W 122°23'0 0.0
2015-Jun-12 05:33N 47°40' W 122°23'0 0.0
2015-Jun-12 04:34N 47°40' W 122°23'0 0.0
2015-Jun-12 04:29N 47°40' W 122°23'0 0.0
2015-Jun-12 03:33N 47°40' W 122°23'0 0.0
2015-Jun-12 03:29N 47°40' W 122°23'0 0.0
2015-Jun-12 02:34N 47°40' W 122°23'0 0.0
2015-Jun-12 02:33N 47°40' W 122°23'0 0.0
2015-Jun-12 01:34N 47°40' W 122°23'0 0.0
2015-Jun-12 01:33N 47°40' W 122°23'0 0.0
2015-Jun-12 00:33N 47°40' W 122°23'0 0.0
2015-Jun-12 00:33N 47°40' W 122°23'0 0.0
2015-Jun-11 23:33N 47°40' W 122°23'0 0.0
2015-Jun-11 23:33N 47°40' W 122°23'0 0.0
2015-Jun-11 22:33N 47°40' W 122°23'0 0.0
2015-Jun-11 22:33N 47°40' W 122°23'0 0.0
2015-Jun-11 21:33N 47°40' W 122°23'0 0.0
2015-Jun-11 21:32N 47°40' W 122°23'0 0.0
2015-Jun-11 20:33N 47°40' W 122°23'0 0.0
2015-Jun-11 20:33N 47°40' W 122°23'0 0.0
2015-Jun-11 19:33N 47°40' W 122°23'0 0.0
2015-Jun-11 19:32N 47°40' W 122°23'0 0.0
2015-Jun-11 18:33N 47°40' W 122°23'0 0.3
2015-Jun-11 18:32N 47°40' W 122°23'0 0.0
2015-Jun-11 17:33N 47°40' W 122°23'0 0.0
2015-Jun-11 17:32N 47°40' W 122°23'0 0.0
2015-Jun-11 16:33N 47°40' W 122°23'0 0.3
2015-Jun-11 16:32N 47°40' W 122°23'0 0.0
2015-Jun-11 15:18N 47°40' W 122°23'0 0.0
2015-Jun-11 15:16N 47°40' W 122°23'0 0.0
2015-Jun-11 14:33N 47°40' W 122°23'0 0.2
2015-Jun-11 14:31N 47°40' W 122°23'0 0.0
2015-Jun-11 13:34N 47°40' W 122°23'0 0.0
2015-Jun-11 13:31N 47°40' W 122°23'0 0.0
2015-Jun-11 12:34N 47°40' W 122°23'0 0.0
2015-Jun-11 12:31N 47°40' W 122°23'0 0.0
2015-Jun-11 11:33N 47°40' W 122°23'0 0.0
2015-Jun-11 11:31N 47°40' W 122°23'0 0.0
2015-Jun-11 10:33N 47°40' W 122°23'0 0.0
2015-Jun-11 10:30N 47°40' W 122°23'0 0.0
2015-Jun-11 09:33N 47°40' W 122°23'0 0.0
2015-Jun-11 09:30N 47°40' W 122°23'0 0.0
2015-Jun-11 08:33N 47°40' W 122°23'0 0.0
2015-Jun-11 08:30N 47°40' W 122°23'0 0.0
2015-Jun-11 07:33N 47°40' W 122°23'0 0.2
2015-Jun-11 07:30N 47°40' W 122°23'0 0.0
2015-Jun-11 06:33N 47°40' W 122°23'0 0.0
2015-Jun-11 06:29N 47°40' W 122°23'0 0.0
2015-Jun-11 06:14N 47°40' W 122°23'0 0.0
2015-Jun-11 05:34N 47°40' W 122°23'0 0.0
2015-Jun-11 04:34N 47°40' W 122°23'0 0.0
2015-Jun-11 04:29N 47°40' W 122°23'0 0.0
2015-Jun-11 03:33N 47°40' W 122°23'0 0.1
2015-Jun-11 03:29N 47°40' W 122°23'0 0.0
2015-Jun-11 02:33N 47°40' W 122°23'0 0.0
2015-Jun-11 02:29N 47°40' W 122°23'0 0.0
2015-Jun-11 01:34N 47°40' W 122°23'0 0.7
2015-Jun-11 01:33N 47°40' W 122°23'0 0.0
2015-Jun-11 00:33N 47°40' W 122°23'0 0.0
2015-Jun-11 00:33N 47°40' W 122°23'0 0.0
2015-Jun-10 23:33N 47°40' W 122°23'0 0.0
2015-Jun-10 23:33N 47°40' W 122°23'0 0.0
2015-Jun-10 22:33N 47°40' W 122°23'0 0.0
2015-Jun-10 22:33N 47°40' W 122°23'0 0.0
2015-Jun-10 21:34N 47°40' W 122°23'0 0.0
2015-Jun-10 21:32N 47°40' W 122°23'0 0.0
2015-Jun-10 20:34N 47°40' W 122°23'0 0.0
2015-Jun-10 20:33N 47°40' W 122°23'0 0.0
2015-Jun-10 19:33N 47°40' W 122°23'0 0.0
2015-Jun-10 19:32N 47°40' W 122°23'0 0.0
2015-Jun-10 18:33N 47°40' W 122°23'0 0.0
2015-Jun-10 18:32N 47°40' W 122°23'0 0.0
2015-Jun-10 17:33N 47°40' W 122°23'0 0.0
2015-Jun-10 17:32N 47°40' W 122°23'0 0.0
2015-Jun-10 16:33N 47°40' W 122°23'0 0.0
2015-Jun-10 16:32N 47°40' W 122°23'0 0.0
2015-Jun-10 15:32N 47°40' W 122°23'0 0.4
2015-Jun-10 15:31N 47°40' W 122°23'0 0.0
2015-Jun-10 14:33N 47°40' W 122°23'0 0.0
2015-Jun-10 14:31N 47°40' W 122°23'0 0.0
2015-Jun-10 13:34N 47°40' W 122°23'0 0.0
2015-Jun-10 13:31N 47°40' W 122°23'0 0.0
2015-Jun-10 12:34N 47°40' W 122°23'0 0.0
2015-Jun-10 12:31N 47°40' W 122°23'0 0.0
2015-Jun-10 11:34N 47°40' W 122°23'0 0.0
2015-Jun-10 11:31N 47°40' W 122°23'0 0.0
2015-Jun-10 10:34N 47°40' W 122°23'0 0.0
2015-Jun-10 10:31N 47°40' W 122°23'0 0.0
2015-Jun-10 09:34N 47°40' W 122°23'0 0.0
2015-Jun-10 09:30N 47°40' W 122°23'0 0.0
2015-Jun-10 08:33N 47°40' W 122°23'0 0.1
2015-Jun-10 08:30N 47°40' W 122°23'0 0.0
2015-Jun-10 07:31N 47°40' W 122°23'0 0.0
2015-Jun-10 07:30N 47°40' W 122°23'0 0.0
2015-Jun-10 06:33N 47°40' W 122°23'0 0.0
2015-Jun-10 06:30N 47°40' W 122°23'0 0.0
2015-Jun-10 06:20N 47°40' W 122°23'0 0.0
2015-Jun-10 05:33N 47°40' W 122°23'0 0.0
2015-Jun-10 04:33N 47°40' W 122°23'0 0.0
2015-Jun-10 04:29N 47°40' W 122°23'0 0.0
2015-Jun-10 03:34N 47°40' W 122°23'0 0.1
2015-Jun-10 03:29N 47°40' W 122°23'0 0.0
2015-Jun-10 02:34N 47°40' W 122°23'0 0.0
2015-Jun-10 02:29N 47°40' W 122°23'0 0.0
2015-Jun-10 01:34N 47°40' W 122°23'0 0.0
2015-Jun-10 00:33N 47°40' W 122°23'0 0.0
2015-Jun-10 00:33N 47°40' W 122°23'0 0.0
2015-Jun-09 23:33N 47°40' W 122°23'0 0.0
2015-Jun-09 23:33N 47°40' W 122°23'0 0.0
2015-Jun-09 22:33N 47°40' W 122°23'0 0.0
2015-Jun-09 22:33N 47°40' W 122°23'0 0.0
2015-Jun-09 21:33N 47°40' W 122°23'0 0.0
2015-Jun-09 21:33N 47°40' W 122°23'0 0.0
2015-Jun-09 20:33N 47°40' W 122°23'0 0.0
2015-Jun-09 20:33N 47°40' W 122°23'0 0.0
2015-Jun-09 19:34N 47°40' W 122°23'0 0.0
2015-Jun-09 19:32N 47°40' W 122°23'0 0.0
2015-Jun-09 18:34N 47°40' W 122°23'0 0.3
2015-Jun-09 18:32N 47°40' W 122°23'0 0.0
2015-Jun-09 17:34N 47°40' W 122°23'0 0.0
2015-Jun-09 17:32N 47°40' W 122°23'0 0.0
2015-Jun-09 16:33N 47°40' W 122°23'0 0.2
2015-Jun-09 16:32N 47°40' W 122°23'0 0.0
2015-Jun-09 15:33N 47°40' W 122°23'0 0.5
2015-Jun-09 15:32N 47°40' W 122°23'0 0.0
2015-Jun-09 14:33N 47°40' W 122°23'0 0.0
2015-Jun-09 14:31N 47°40' W 122°23'0 0.0
2015-Jun-09 13:33N 47°40' W 122°23'0 0.1
2015-Jun-09 13:31N 47°40' W 122°23'0 0.0
2015-Jun-09 12:34N 47°40' W 122°23'0 0.0
2015-Jun-09 12:31N 47°40' W 122°23'0 0.0
2015-Jun-09 11:34N 47°40' W 122°23'0 0.0
2015-Jun-09 11:31N 47°40' W 122°23'0 0.0
2015-Jun-09 10:34N 47°40' W 122°23'0 0.0
2015-Jun-09 10:31N 47°40' W 122°23'0 0.0
2015-Jun-09 09:34N 47°40' W 122°23'0 0.1
2015-Jun-09 09:30N 47°40' W 122°23'0 0.0
2015-Jun-09 08:33N 47°40' W 122°23'0 0.1
2015-Jun-09 08:30N 47°40' W 122°23'0 0.0
2015-Jun-09 07:33N 47°40' W 122°23'0 0.0
2015-Jun-09 07:30N 47°40' W 122°23'0 0.0
2015-Jun-09 06:33N 47°40' W 122°23'0 0.1
2015-Jun-09 06:30N 47°40' W 122°23'0 0.0
2015-Jun-09 06:15N 47°40' W 122°23'0 0.0
2015-Jun-09 05:33N 47°40' W 122°23'0 0.0
2015-Jun-09 04:33N 47°40' W 122°23'0 0.0
2015-Jun-09 04:29N 47°40' W 122°23'0 0.0
2015-Jun-09 03:34N 47°40' W 122°23'0 0.0
2015-Jun-09 03:29N 47°40' W 122°23'0 0.0
2015-Jun-09 02:33N 47°40' W 122°23'0 0.0
2015-Jun-09 02:29N 47°40' W 122°23'0 0.0
2015-Jun-09 01:34N 47°40' W 122°23'0 0.0
2015-Jun-09 01:29N 47°40' W 122°23'0 0.0
2015-Jun-09 00:33N 47°40' W 122°23'0 0.9
2015-Jun-09 00:33N 47°40' W 122°23'0 0.0
2015-Jun-08 23:33N 47°40' W 122°23'0 0.0
2015-Jun-08 23:33N 47°40' W 122°23'0 0.0
2015-Jun-08 22:33N 47°40' W 122°23'0 0.0
2015-Jun-08 22:33N 47°40' W 122°23'0 0.0
2015-Jun-08 21:33N 47°40' W 122°23'0 0.0
2015-Jun-08 21:33N 47°40' W 122°23'0 0.0
2015-Jun-08 20:34N 47°40' W 122°23'0 0.0
2015-Jun-08 20:33N 47°40' W 122°23'0 0.0
2015-Jun-08 19:34N 47°40' W 122°23'0 0.0
2015-Jun-08 19:32N 47°40' W 122°23'0 0.0
2015-Jun-08 18:33N 47°40' W 122°23'0 0.0
2015-Jun-08 18:32N 47°40' W 122°23'0 0.0
2015-Jun-08 17:34N 47°40' W 122°23'0 0.0
2015-Jun-08 17:32N 47°40' W 122°23'0 0.0
2015-Jun-08 16:33N 47°40' W 122°23'0 0.0
2015-Jun-08 16:32N 47°40' W 122°23'0 0.0
2015-Jun-08 15:33N 47°40' W 122°23'0 0.0
2015-Jun-08 15:32N 47°40' W 122°23'0 0.0
2015-Jun-08 14:33N 47°40' W 122°23'0 0.2
2015-Jun-08 14:31N 47°40' W 122°23'  

Dump ship's entire track history